Sakana — WDI5428 — position and weather

sailwx.info

Track history (hours):
 
Tides and Currents Weather Stations Pressure Air Temp Water Temp Dewpoint Dewpoint Depression Visibility Wind Speed Wind Dir Waves Ship Positions

Sakana

Owner: Post, Larry J, Bellevue, WA. More information available from US FCC via Universal Licensing System and Coast Guard Vessel Documentation Center.

Last reported at 2018-Jul-23 17:30 UTC. Time now 2018-Jul-23 17:32 UTC.
Position N 51°39' W 127°56'.

Length 10 m.

Type: Pleasure craft. MMSI: 367708440.

Date/timePositionNaut miles runAvg speedWind from/ knotsBaromVisibWave heightAir tempDewpointWater temp
2018-Jul-23 17:30N 51°39' W 127°56'1120.8
2018-Jul-23 16:58N 51°30' W 127°46'0 0.3
2018-Jul-23 16:30N 51°30' W 127°46'0 0.4
2018-Jul-23 16:00N 51°30' W 127°46'1 2.4
2018-Jul-23 15:29N 51°29' W 127°47'610.2
2018-Jul-23 14:53N 51°22' W 127°47'0 0.6
2018-Jul-23 14:29N 51°23' W 127°46'0 0.3
2018-Jul-23 13:58N 51°22' W 127°47'0 0.7
2018-Jul-23 13:27N 51°22' W 127°46'3 7.7
2018-Jul-23 13:00N 51°25' W 127°42'2 3.6
2018-Jul-23 12:29N 51°24' W 127°39'0 0.0
2018-Jul-23 11:59N 51°24' W 127°39'0 0.0
2018-Jul-23 11:29N 51°24' W 127°39'0 0.0
2018-Jul-23 10:59N 51°24' W 127°39'0 0.0
2018-Jul-23 10:29N 51°24' W 127°39'0 0.0
2018-Jul-23 09:59N 51°24' W 127°39'0 0.0
2018-Jul-23 09:29N 51°24' W 127°39'0 0.0
2018-Jul-23 08:59N 51°24' W 127°39'0 0.0
2018-Jul-23 08:26N 51°24' W 127°39'0 0.0
2018-Jul-23 07:53N 51°24' W 127°39'0 0.0
2018-Jul-23 07:29N 51°24' W 127°39'0 0.0
2018-Jul-23 06:59N 51°24' W 127°39'0 0.0
2018-Jul-23 06:29N 51°24' W 127°39'0 0.0
2018-Jul-23 05:59N 51°24' W 127°39'0 0.0
2018-Jul-23 05:29N 51°24' W 127°39'0 0.0
2018-Jul-23 04:59N 51°24' W 127°39'0 0.0
2018-Jul-23 04:29N 51°24' W 127°39'0 0.0
2018-Jul-23 03:59N 51°24' W 127°39'0 0.0
2018-Jul-23 03:29N 51°24' W 127°39'0 0.0
2018-Jul-23 02:59N 51°24' W 127°39'0 0.0
2018-Jul-23 02:29N 51°24' W 127°39'0 0.0
2018-Jul-23 01:59N 51°24' W 127°39'0 0.0
2018-Jul-23 01:26N 51°24' W 127°39'0 0.0
2018-Jul-23 00:50N 51°24' W 127°39'0 0.0
2018-Jul-23 00:26N 51°24' W 127°39'0 0.0
2018-Jul-22 23:59N 51°24' W 127°39'0 0.0
2018-Jul-22 23:29N 51°24' W 127°39'0 0.0
2018-Jul-22 22:56N 51°24' W 127°39'0 0.0
2018-Jul-22 21:47N 51°24' W 127°39'0 0.1
2018-Jul-22 21:23N 51°24' W 127°39'0 0.0
2018-Jul-22 21:00N 51°24' W 127°39'714.0
2018-Jul-22 20:30N 51°30' W 127°45'0 0.2
2018-Jul-22 20:00N 51°30' W 127°45'0 0.8
2018-Jul-22 19:29N 51°30' W 127°46'0 0.6
2018-Jul-22 19:00N 51°30' W 127°45'612.0
2018-Jul-22 18:30N 51°25' W 127°39'1717.9
2018-Jul-22 17:33N 51°09' W 127°48'122.8
2018-Jul-22 17:30N 51°09' W 127°46'1 1.8
2018-Jul-22 16:53N 51°08' W 127°44'1 2.1
2018-Jul-22 16:27N 51°08' W 127°43'3 1.7
2018-Jul-22 14:54N 51°05' W 127°45'820.3
2018-Jul-22 14:30N 50°58' W 127°43'1121.8
2018-Jul-22 14:00N 50°50' W 127°30'10 0.8
2018-Jul-22 01:50N 50°42' W 127°20'720.9
2018-Jul-22 01:30N 50°38' W 127°11'4 8.9
2018-Jul-22 01:00N 50°35' W 127°05'0 0.0
2018-Jul-22 00:30N 50°35' W 127°05'0 0.0
2018-Jul-22 00:00N 50°35' W 127°05'0 0.0
2018-Jul-21 23:30N 50°35' W 127°05'0 0.0
2018-Jul-21 23:00N 50°35' W 127°05'0 0.0
2018-Jul-21 22:30N 50°35' W 127°05'0 0.0
2018-Jul-21 22:00N 50°35' W 127°05'0 0.0
2018-Jul-21 21:24N 50°35' W 127°05'0 0.1
2018-Jul-21 21:00N 50°35' W 127°06'1 1.7
2018-Jul-21 20:30N 50°36' W 127°04'15 0.7
2018-Jul-20 23:52N 50°42' W 127°25'  
2018-Jul-18 16:40N 50°25' W 125°30'0 0.0
2018-Jul-18 16:29N 50°25' W 125°30'0 0.0
2018-Jul-18 15:54N 50°25' W 125°30'10 0.4
2018-Jul-17 17:44N 50°16' W 125°24'520.2
2018-Jul-17 17:29N 50°11' W 125°22'1326.3
2018-Jul-17 17:00N 50°00' W 125°12'165 3.7
2018-Jul-15 20:05N 47°54' W 122°31'225.9
2018-Jul-15 20:00N 47°52' W 122°30'5 4.3
2018-Jul-15 18:47N 47°47' W 122°28'9 0.3
2018-Jul-14 13:13N 47°38' W 122°24'0 0.0
2018-Jul-14 01:47N 47°38' W 122°24'0 0.0
2018-Jul-14 01:29N 47°38' W 122°24'0 0.0
2018-Jul-14 00:59N 47°38' W 122°24'0 0.0
2018-Jul-14 00:29N 47°38' W 122°24'0 0.0
2018-Jul-13 23:59N 47°38' W 122°24'0 0.0
2018-Jul-13 23:29N 47°38' W 122°24'0 0.0
2018-Jul-13 22:59N 47°38' W 122°24'0 0.0
2018-Jul-13 22:29N 47°38' W 122°24'0 0.0
2018-Jul-13 21:59N 47°38' W 122°24'0 0.0
2018-Jul-13 20:14N 47°38' W 122°24'0 0.0
2018-Jul-13 19:59N 47°38' W 122°24'0 0.0
2018-Jul-13 19:29N 47°38' W 122°24'0 0.0
2018-Jul-13 18:59N 47°38' W 122°24'0 0.0
2018-Jul-13 18:29N 47°38' W 122°24'0 0.0
2018-Jul-13 17:59N 47°38' W 122°24'  
Track history (hours):
 
Tides and Currents Weather Stations Pressure Air Temp Water Temp Dewpoint Dewpoint Depression Visibility Wind Speed Wind Dir Waves Ship Positions

Sakana

Owner: Post, Larry J, Bellevue, WA. More information available from US FCC via Universal Licensing System and Coast Guard Vessel Documentation Center.

Last reported at 2018-Jul-23 17:30 UTC. Time now 2018-Jul-23 17:32 UTC.
Position N 51°39' W 127°56'.

Length 10 m.

Type: Pleasure craft. MMSI: 367708440.

Date/timePositionNaut miles runAvg speedWind from/ knotsBaromVisibWave heightAir tempDewpointWater temp
2018-Jul-23 17:30N 51°39' W 127°56'1120.8
2018-Jul-23 16:58N 51°30' W 127°46'0 0.3
2018-Jul-23 16:30N 51°30' W 127°46'0 0.4
2018-Jul-23 16:00N 51°30' W 127°46'1 2.4
2018-Jul-23 15:29N 51°29' W 127°47'610.2
2018-Jul-23 14:53N 51°22' W 127°47'0 0.6
2018-Jul-23 14:29N 51°23' W 127°46'0 0.3
2018-Jul-23 13:58N 51°22' W 127°47'0 0.7
2018-Jul-23 13:27N 51°22' W 127°46'3 7.7
2018-Jul-23 13:00N 51°25' W 127°42'2 3.6
2018-Jul-23 12:29N 51°24' W 127°39'0 0.0
2018-Jul-23 11:59N 51°24' W 127°39'0 0.0
2018-Jul-23 11:29N 51°24' W 127°39'0 0.0
2018-Jul-23 10:59N 51°24' W 127°39'0 0.0
2018-Jul-23 10:29N 51°24' W 127°39'0 0.0
2018-Jul-23 09:59N 51°24' W 127°39'0 0.0
2018-Jul-23 09:29N 51°24' W 127°39'0 0.0
2018-Jul-23 08:59N 51°24' W 127°39'0 0.0
2018-Jul-23 08:26N 51°24' W 127°39'0 0.0
2018-Jul-23 07:53N 51°24' W 127°39'0 0.0
2018-Jul-23 07:29N 51°24' W 127°39'0 0.0
2018-Jul-23 06:59N 51°24' W 127°39'0 0.0
2018-Jul-23 06:29N 51°24' W 127°39'0 0.0
2018-Jul-23 05:59N 51°24' W 127°39'0 0.0
2018-Jul-23 05:29N 51°24' W 127°39'0 0.0
2018-Jul-23 04:59N 51°24' W 127°39'0 0.0
2018-Jul-23 04:29N 51°24' W 127°39'0 0.0
2018-Jul-23 03:59N 51°24' W 127°39'0 0.0
2018-Jul-23 03:29N 51°24' W 127°39'0 0.0
2018-Jul-23 02:59N 51°24' W 127°39'0 0.0
2018-Jul-23 02:29N 51°24' W 127°39'0 0.0
2018-Jul-23 01:59N 51°24' W 127°39'0 0.0
2018-Jul-23 01:26N 51°24' W 127°39'0 0.0
2018-Jul-23 00:50N 51°24' W 127°39'0 0.0
2018-Jul-23 00:26N 51°24' W 127°39'0 0.0
2018-Jul-22 23:59N 51°24' W 127°39'0 0.0
2018-Jul-22 23:29N 51°24' W 127°39'0 0.0
2018-Jul-22 22:56N 51°24' W 127°39'0 0.0
2018-Jul-22 21:47N 51°24' W 127°39'0 0.1
2018-Jul-22 21:23N 51°24' W 127°39'0 0.0
2018-Jul-22 21:00N 51°24' W 127°39'714.0
2018-Jul-22 20:30N 51°30' W 127°45'0 0.2
2018-Jul-22 20:00N 51°30' W 127°45'0 0.8
2018-Jul-22 19:29N 51°30' W 127°46'0 0.6
2018-Jul-22 19:00N 51°30' W 127°45'612.0
2018-Jul-22 18:30N 51°25' W 127°39'1717.9
2018-Jul-22 17:33N 51°09' W 127°48'122.8
2018-Jul-22 17:30N 51°09' W 127°46'1 1.8
2018-Jul-22 16:53N 51°08' W 127°44'1 2.1
2018-Jul-22 16:27N 51°08' W 127°43'3 1.7
2018-Jul-22 14:54N 51°05' W 127°45'820.3
2018-Jul-22 14:30N 50°58' W 127°43'1121.8
2018-Jul-22 14:00N 50°50' W 127°30'10 0.8
2018-Jul-22 01:50N 50°42' W 127°20'720.9
2018-Jul-22 01:30N 50°38' W 127°11'4 8.9
2018-Jul-22 01:00N 50°35' W 127°05'0 0.0
2018-Jul-22 00:30N 50°35' W 127°05'0 0.0
2018-Jul-22 00:00N 50°35' W 127°05'0 0.0
2018-Jul-21 23:30N 50°35' W 127°05'0 0.0
2018-Jul-21 23:00N 50°35' W 127°05'0 0.0
2018-Jul-21 22:30N 50°35' W 127°05'0 0.0
2018-Jul-21 22:00N 50°35' W 127°05'0 0.0
2018-Jul-21 21:24N 50°35' W 127°05'0 0.1
2018-Jul-21 21:00N 50°35' W 127°06'1 1.7
2018-Jul-21 20:30N 50°36' W 127°04'15 0.7
2018-Jul-20 23:52N 50°42' W 127°25'  
2018-Jul-18 16:40N 50°25' W 125°30'0 0.0
2018-Jul-18 16:29N 50°25' W 125°30'0 0.0
2018-Jul-18 15:54N 50°25' W 125°30'10 0.4
2018-Jul-17 17:44N 50°16' W 125°24'520.2
2018-Jul-17 17:29N 50°11' W 125°22'1326.3
2018-Jul-17 17:00N 50°00' W 125°12'165 3.7
2018-Jul-15 20:05N 47°54' W 122°31'225.9
2018-Jul-15 20:00N 47°52' W 122°30'5 4.3
2018-Jul-15 18:47N 47°47' W 122°28'9 0.3
2018-Jul-14 13:13N 47°38' W 122°24'0 0.0
2018-Jul-14 01:47N 47°38' W 122°24'0 0.0
2018-Jul-14 01:29N 47°38' W 122°24'0 0.0
2018-Jul-14 00:59N 47°38' W 122°24'0 0.0
2018-Jul-14 00:29N 47°38' W 122°24'0 0.0
2018-Jul-13 23:59N 47°38' W 122°24'0 0.0
2018-Jul-13 23:29N 47°38' W 122°24'0 0.0
2018-Jul-13 22:59N 47°38' W 122°24'0 0.0
2018-Jul-13 22:29N 47°38' W 122°24'0 0.0
2018-Jul-13 21:59N 47°38' W 122°24'0 0.0
2018-Jul-13 20:14N 47°38' W 122°24'0 0.0
2018-Jul-13 19:59N 47°38' W 122°24'0 0.0
2018-Jul-13 19:29N 47°38' W 122°24'0 0.0
2018-Jul-13 18:59N 47°38' W 122°24'0 0.0
2018-Jul-13 18:29N 47°38' W 122°24'0 0.0
2018-Jul-13 17:59N 47°38' W 122°24'  

Dump ship's entire track history